South Peacham, Vermont
Current Conditions -  °F | °C
As of 9:15 PM on Saturday 22 Nov 2014 (Local Time) from KCDA Reporting Station
Overcast Overcast  
Wind Chill: 28°   Ceiling: 2400
Heat Index: 33°   Visibility: 10mi
Dew Point: 18°   Wind: 6mph
Humidity: 53%   Direction: 130°SE
Pressure: 29.93"   Gusts: NA
Location:  44.3148°N, 72.091°W
Report Text: KCDA 230215Z AUTO 13005KT 10SM OVC024 01/M08 A2993 RMK AO2 T00071079
Loading
Personal Weather Stations






























Interactive Weather Map New forecast layout! Learn more

10-Day Weather Forecast

Advertisements
Track Severe Weather on mobile